sensor_id;sensor_type;location;lat;lon;timestamp;temperature;humidity
9977;DHT22;5029;47.378;11.776;2023-03-31T00:04:12;5.00;99.90
9977;DHT22;5029;47.378;11.776;2023-03-31T00:09:16;5.10;99.90
9977;DHT22;5029;47.378;11.776;2023-03-31T00:14:23;5.00;99.90
9977;DHT22;5029;47.378;11.776;2023-03-31T00:19:27;4.90;99.90
9977;DHT22;5029;47.378;11.776;2023-03-31T00:24:34;4.90;99.90
9977;DHT22;5029;47.378;11.776;2023-03-31T00:29:38;4.90;99.90
9977;DHT22;5029;47.378;11.776;2023-03-31T00:34:44;5.00;99.90
9977;DHT22;5029;47.378;11.776;2023-03-31T00:39:48;4.90;99.90
9977;DHT22;5029;47.378;11.776;2023-03-31T00:45:23;4.90;99.90
9977;DHT22;5029;47.378;11.776;2023-03-31T00:50:33;4.90;99.90
9977;DHT22;5029;47.378;11.776;2023-03-31T00:55:41;4.90;99.90
9977;DHT22;5029;47.378;11.776;2023-03-31T01:00:46;5.00;99.90
9977;DHT22;5029;47.378;11.776;2023-03-31T01:05:54;4.90;99.90
9977;DHT22;5029;47.378;11.776;2023-03-31T01:11:01;4.90;99.90
9977;DHT22;5029;47.378;11.776;2023-03-31T01:16:05;5.00;99.90
9977;DHT22;5029;47.378;11.776;2023-03-31T01:26:52;5.00;99.90
9977;DHT22;5029;47.378;11.776;2023-03-31T01:38:04;5.00;99.90
9977;DHT22;5029;47.378;11.776;2023-03-31T01:43:16;5.00;99.90
9977;DHT22;5029;47.378;11.776;2023-03-31T01:48:30;5.00;99.90
9977;DHT22;5029;47.378;11.776;2023-03-31T01:53:41;4.90;99.90
9977;DHT22;5029;47.378;11.776;2023-03-31T01:58:51;4.90;99.90
9977;DHT22;5029;47.378;11.776;2023-03-31T02:03:59;5.00;99.90
9977;DHT22;5029;47.378;11.776;2023-03-31T02:09:07;5.00;99.90
9977;DHT22;5029;47.378;11.776;2023-03-31T02:14:17;5.10;99.90
9977;DHT22;5029;47.378;11.776;2023-03-31T02:19:25;5.00;99.90
9977;DHT22;5029;47.378;11.776;2023-03-31T02:24:30;4.90;99.90
9977;DHT22;5029;47.378;11.776;2023-03-31T02:29:37;5.00;99.90
9977;DHT22;5029;47.378;11.776;2023-03-31T02:34:40;4.90;99.90
9977;DHT22;5029;47.378;11.776;2023-03-31T02:39:45;4.70;99.90
9977;DHT22;5029;47.378;11.776;2023-03-31T02:44:50;4.80;99.90
9977;DHT22;5029;47.378;11.776;2023-03-31T02:49:57;4.70;99.90
9977;DHT22;5029;47.378;11.776;2023-03-31T02:55:10;4.50;99.90
9977;DHT22;5029;47.378;11.776;2023-03-31T03:00:25;4.70;99.90
9977;DHT22;5029;47.378;11.776;2023-03-31T03:05:36;4.70;99.90
9977;DHT22;5029;47.378;11.776;2023-03-31T03:10:56;4.70;99.90
9977;DHT22;5029;47.378;11.776;2023-03-31T03:16:04;4.70;99.90
9977;DHT22;5029;47.378;11.776;2023-03-31T03:21:10;4.70;99.90
9977;DHT22;5029;47.378;11.776;2023-03-31T03:26:13;4.70;99.90
9977;DHT22;5029;47.378;11.776;2023-03-31T03:31:18;4.50;99.90
9977;DHT22;5029;47.378;11.776;2023-03-31T03:36:22;4.60;99.90
9977;DHT22;5029;47.378;11.776;2023-03-31T03:41:25;4.60;99.90
9977;DHT22;5029;47.378;11.776;2023-03-31T03:46:30;4.60;99.90
9977;DHT22;5029;47.378;11.776;2023-03-31T03:51:33;4.60;99.90
9977;DHT22;5029;47.378;11.776;2023-03-31T03:56:37;4.60;99.90
9977;DHT22;5029;47.378;11.776;2023-03-31T04:01:42;4.30;99.90
9977;DHT22;5029;47.378;11.776;2023-03-31T04:06:45;4.50;99.90
9977;DHT22;5029;47.378;11.776;2023-03-31T04:11:49;4.60;99.90
9977;DHT22;5029;47.378;11.776;2023-03-31T04:16:53;4.50;99.90
9977;DHT22;5029;47.378;11.776;2023-03-31T04:21:57;4.60;99.90
9977;DHT22;5029;47.378;11.776;2023-03-31T04:27:04;4.60;99.90
9977;DHT22;5029;47.378;11.776;2023-03-31T04:32:09;4.60;99.90
9977;DHT22;5029;47.378;11.776;2023-03-31T04:37:16;4.50;99.90
9977;DHT22;5029;47.378;11.776;2023-03-31T04:42:19;4.60;99.90
9977;DHT22;5029;47.378;11.776;2023-03-31T04:47:24;4.50;99.90
9977;DHT22;5029;47.378;11.776;2023-03-31T04:52:27;4.40;99.90
9977;DHT22;5029;47.378;11.776;2023-03-31T04:57:31;4.30;99.90
9977;DHT22;5029;47.378;11.776;2023-03-31T05:02:35;4.30;99.90
9977;DHT22;5029;47.378;11.776;2023-03-31T05:07:39;4.30;99.90
9977;DHT22;5029;47.378;11.776;2023-03-31T05:12:42;4.30;99.90
9977;DHT22;5029;47.378;11.776;2023-03-31T05:17:48;4.20;99.90
9977;DHT22;5029;47.378;11.776;2023-03-31T05:22:51;4.10;99.90
9977;DHT22;5029;47.378;11.776;2023-03-31T05:27:54;4.20;99.90
9977;DHT22;5029;47.378;11.776;2023-03-31T05:32:59;4.10;99.90
9977;DHT22;5029;47.378;11.776;2023-03-31T05:38:03;4.10;99.90
9977;DHT22;5029;47.378;11.776;2023-03-31T05:43:07;4.20;99.90
9977;DHT22;5029;47.378;11.776;2023-03-31T05:48:12;4.20;99.90
9977;DHT22;5029;47.378;11.776;2023-03-31T05:53:15;4.30;99.90
9977;DHT22;5029;47.378;11.776;2023-03-31T05:58:18;4.40;99.90
9977;DHT22;5029;47.378;11.776;2023-03-31T06:03:23;4.50;99.90
9977;DHT22;5029;47.378;11.776;2023-03-31T06:08:26;4.60;99.90
9977;DHT22;5029;47.378;11.776;2023-03-31T06:13:30;4.60;99.90
9977;DHT22;5029;47.378;11.776;2023-03-31T06:18:35;4.80;99.90
9977;DHT22;5029;47.378;11.776;2023-03-31T06:23:38;4.70;99.90
9977;DHT22;5029;47.378;11.776;2023-03-31T06:28:42;4.70;99.90
9977;DHT22;5029;47.378;11.776;2023-03-31T06:33:48;4.90;99.90
9977;DHT22;5029;47.378;11.776;2023-03-31T06:38:52;5.00;99.90
9977;DHT22;5029;47.378;11.776;2023-03-31T06:43:55;5.00;99.90
9977;DHT22;5029;47.378;11.776;2023-03-31T06:49:00;5.00;99.90
9977;DHT22;5029;47.378;11.776;2023-03-31T06:54:03;5.10;99.90
9977;DHT22;5029;47.378;11.776;2023-03-31T06:59:07;5.10;99.90
9977;DHT22;5029;47.378;11.776;2023-03-31T07:04:11;5.40;99.90
9977;DHT22;5029;47.378;11.776;2023-03-31T07:09:15;5.50;99.90
9977;DHT22;5029;47.378;11.776;2023-03-31T07:14:19;5.60;99.90
9977;DHT22;5029;47.378;11.776;2023-03-31T07:19:25;5.60;99.90
9977;DHT22;5029;47.378;11.776;2023-03-31T07:24:28;5.70;99.90
9977;DHT22;5029;47.378;11.776;2023-03-31T07:29:31;5.70;99.90
9977;DHT22;5029;47.378;11.776;2023-03-31T07:34:36;5.70;99.90
9977;DHT22;5029;47.378;11.776;2023-03-31T07:39:41;5.70;99.90
9977;DHT22;5029;47.378;11.776;2023-03-31T07:44:44;5.80;99.90
9977;DHT22;5029;47.378;11.776;2023-03-31T07:49:49;6.00;99.90
9977;DHT22;5029;47.378;11.776;2023-03-31T07:54:52;6.30;99.90
9977;DHT22;5029;47.378;11.776;2023-03-31T07:59:56;6.40;99.90
9977;DHT22;5029;47.378;11.776;2023-03-31T08:05:00;6.50;99.90
9977;DHT22;5029;47.378;11.776;2023-03-31T08:10:05;6.60;99.90
9977;DHT22;5029;47.378;11.776;2023-03-31T08:15:09;6.70;99.90
9977;DHT22;5029;47.378;11.776;2023-03-31T08:20:14;6.90;99.90
9977;DHT22;5029;47.378;11.776;2023-03-31T08:25:18;7.00;99.90
9977;DHT22;5029;47.378;11.776;2023-03-31T08:30:22;7.20;99.90
9977;DHT22;5029;47.378;11.776;2023-03-31T08:35:27;7.50;99.90
9977;DHT22;5029;47.378;11.776;2023-03-31T08:40:31;7.90;99.90
9977;DHT22;5029;47.378;11.776;2023-03-31T08:45:36;8.20;99.90
9977;DHT22;5029;47.378;11.776;2023-03-31T08:50:46;7.60;99.90
9977;DHT22;5029;47.378;11.776;2023-03-31T08:55:54;7.70;99.90
9977;DHT22;5029;47.378;11.776;2023-03-31T09:01:02;8.40;99.90
9977;DHT22;5029;47.378;11.776;2023-03-31T09:06:14;8.50;99.90
9977;DHT22;5029;47.378;11.776;2023-03-31T09:11:27;9.10;99.90
9977;DHT22;5029;47.378;11.776;2023-03-31T09:16:36;8.90;99.90
9977;DHT22;5029;47.378;11.776;2023-03-31T09:21:44;8.80;99.90
9977;DHT22;5029;47.378;11.776;2023-03-31T09:26:50;9.20;99.90
9977;DHT22;5029;47.378;11.776;2023-03-31T09:32:00;9.50;99.90
9977;DHT22;5029;47.378;11.776;2023-03-31T09:37:05;9.80;99.90
9977;DHT22;5029;47.378;11.776;2023-03-31T09:42:10;10.00;99.90
9977;DHT22;5029;47.378;11.776;2023-03-31T09:47:17;10.20;99.90
9977;DHT22;5029;47.378;11.776;2023-03-31T09:52:29;10.10;99.90
9977;DHT22;5029;47.378;11.776;2023-03-31T09:57:34;10.90;99.90
9977;DHT22;5029;47.378;11.776;2023-03-31T10:02:38;11.10;99.90
9977;DHT22;5029;47.378;11.776;2023-03-31T10:07:48;11.40;99.90
9977;DHT22;5029;47.378;11.776;2023-03-31T10:12:52;10.60;99.90
9977;DHT22;5029;47.378;11.776;2023-03-31T10:17:57;10.60;99.90
9977;DHT22;5029;47.378;11.776;2023-03-31T10:23:14;10.40;99.90
9977;DHT22;5029;47.378;11.776;2023-03-31T10:28:19;11.10;99.90
9977;DHT22;5029;47.378;11.776;2023-03-31T10:33:25;11.50;99.90
9977;DHT22;5029;47.378;11.776;2023-03-31T10:38:33;10.50;99.90
9977;DHT22;5029;47.378;11.776;2023-03-31T10:43:40;10.30;99.90
9977;DHT22;5029;47.378;11.776;2023-03-31T10:48:44;9.60;99.90
9977;DHT22;5029;47.378;11.776;2023-03-31T10:53:51;9.50;99.90
9977;DHT22;5029;47.378;11.776;2023-03-31T10:59:10;9.10;99.90
9977;DHT22;5029;47.378;11.776;2023-03-31T11:04:41;9.30;99.90
9977;DHT22;5029;47.378;11.776;2023-03-31T11:09:58;10.10;99.90
9977;DHT22;5029;47.378;11.776;2023-03-31T11:15:15;10.20;99.90
9977;DHT22;5029;47.378;11.776;2023-03-31T11:20:28;10.10;99.90
9977;DHT22;5029;47.378;11.776;2023-03-31T11:25:38;9.30;99.90
9977;DHT22;5029;47.378;11.776;2023-03-31T11:30:49;9.00;99.90
9977;DHT22;5029;47.378;11.776;2023-03-31T11:36:03;8.80;99.90
9977;DHT22;5029;47.378;11.776;2023-03-31T11:41:13;8.80;99.90
9977;DHT22;5029;47.378;11.776;2023-03-31T11:46:20;8.80;99.90
9977;DHT22;5029;47.378;11.776;2023-03-31T11:51:27;8.90;99.90
9977;DHT22;5029;47.378;11.776;2023-03-31T11:56:36;8.90;99.90
9977;DHT22;5029;47.378;11.776;2023-03-31T12:01:43;9.10;99.90
9977;DHT22;5029;47.378;11.776;2023-03-31T12:06:52;9.10;99.90
9977;DHT22;5029;47.378;11.776;2023-03-31T12:12:03;9.00;99.90
9977;DHT22;5029;47.378;11.776;2023-03-31T12:17:10;8.70;99.90
9977;DHT22;5029;47.378;11.776;2023-03-31T12:22:17;8.70;99.90
9977;DHT22;5029;47.378;11.776;2023-03-31T12:27:25;8.60;99.90
9977;DHT22;5029;47.378;11.776;2023-03-31T12:32:32;8.50;99.90
9977;DHT22;5029;47.378;11.776;2023-03-31T12:38:15;8.20;99.90
9977;DHT22;5029;47.378;11.776;2023-03-31T12:43:36;8.10;99.90
9977;DHT22;5029;47.378;11.776;2023-03-31T12:48:54;7.80;99.90
9977;DHT22;5029;47.378;11.776;2023-03-31T12:54:13;7.70;99.90
9977;DHT22;5029;47.378;11.776;2023-03-31T12:59:30;7.70;99.90
9977;DHT22;5029;47.378;11.776;2023-03-31T13:04:34;7.40;99.90
9977;DHT22;5029;47.378;11.776;2023-03-31T13:09:49;7.40;99.90
9977;DHT22;5029;47.378;11.776;2023-03-31T13:14:57;7.20;99.90
9977;DHT22;5029;47.378;11.776;2023-03-31T13:20:25;6.90;99.90
9977;DHT22;5029;47.378;11.776;2023-03-31T13:25:39;6.80;99.90
9977;DHT22;5029;47.378;11.776;2023-03-31T13:30:50;6.80;99.90
9977;DHT22;5029;47.378;11.776;2023-03-31T13:36:04;6.70;99.90
9977;DHT22;5029;47.378;11.776;2023-03-31T13:41:28;6.80;99.90
9977;DHT22;5029;47.378;11.776;2023-03-31T13:46:50;6.70;99.90
9977;DHT22;5029;47.378;11.776;2023-03-31T13:52:04;6.80;99.90
9977;DHT22;5029;47.378;11.776;2023-03-31T13:57:38;6.70;99.90
9977;DHT22;5029;47.378;11.776;2023-03-31T14:02:56;6.80;99.90
9977;DHT22;5029;47.378;11.776;2023-03-31T14:08:06;7.10;99.90
9977;DHT22;5029;47.378;11.776;2023-03-31T14:13:15;7.10;99.90
9977;DHT22;5029;47.378;11.776;2023-03-31T14:18:24;7.10;99.90
9977;DHT22;5029;47.378;11.776;2023-03-31T14:23:37;6.90;99.90
9977;DHT22;5029;47.378;11.776;2023-03-31T14:28:54;6.90;99.90
9977;DHT22;5029;47.378;11.776;2023-03-31T14:39:36;6.80;99.90
9977;DHT22;5029;47.378;11.776;2023-03-31T14:44:41;6.80;99.90
9977;DHT22;5029;47.378;11.776;2023-03-31T14:50:00;6.70;99.90
9977;DHT22;5029;47.378;11.776;2023-03-31T14:55:12;6.70;99.90
9977;DHT22;5029;47.378;11.776;2023-03-31T15:00:21;6.70;99.90
9977;DHT22;5029;47.378;11.776;2023-03-31T15:05:30;6.60;99.90
9977;DHT22;5029;47.378;11.776;2023-03-31T15:10:37;6.30;99.90
9977;DHT22;5029;47.378;11.776;2023-03-31T15:15:41;6.30;99.90
9977;DHT22;5029;47.378;11.776;2023-03-31T15:20:47;6.30;99.90
9977;DHT22;5029;47.378;11.776;2023-03-31T15:25:54;6.30;99.90
9977;DHT22;5029;47.378;11.776;2023-03-31T15:30:58;6.50;99.90
9977;DHT22;5029;47.378;11.776;2023-03-31T15:36:13;6.90;99.90
9977;DHT22;5029;47.378;11.776;2023-03-31T15:41:17;7.20;99.90
9977;DHT22;5029;47.378;11.776;2023-03-31T15:46:24;7.10;99.90
9977;DHT22;5029;47.378;11.776;2023-03-31T15:51:33;7.20;99.90
9977;DHT22;5029;47.378;11.776;2023-03-31T15:56:42;7.30;99.90
9977;DHT22;5029;47.378;11.776;2023-03-31T16:01:47;7.30;99.90
9977;DHT22;5029;47.378;11.776;2023-03-31T16:06:54;8.00;99.90
9977;DHT22;5029;47.378;11.776;2023-03-31T16:12:01;8.20;99.90
9977;DHT22;5029;47.378;11.776;2023-03-31T16:17:10;7.90;99.90
9977;DHT22;5029;47.378;11.776;2023-03-31T16:22:18;7.50;99.90
9977;DHT22;5029;47.378;11.776;2023-03-31T16:27:22;7.00;99.90
9977;DHT22;5029;47.378;11.776;2023-03-31T16:32:26;6.70;99.90
9977;DHT22;5029;47.378;11.776;2023-03-31T16:37:32;7.00;99.90
9977;DHT22;5029;47.378;11.776;2023-03-31T16:42:36;6.90;99.90
9977;DHT22;5029;47.378;11.776;2023-03-31T16:47:39;6.60;99.90
9977;DHT22;5029;47.378;11.776;2023-03-31T16:52:48;6.70;99.90
9977;DHT22;5029;47.378;11.776;2023-03-31T16:57:52;6.70;99.90
9977;DHT22;5029;47.378;11.776;2023-03-31T17:02:56;7.00;99.90
9977;DHT22;5029;47.378;11.776;2023-03-31T17:08:01;6.90;99.90
9977;DHT22;5029;47.378;11.776;2023-03-31T17:13:06;6.60;99.90
9977;DHT22;5029;47.378;11.776;2023-03-31T17:18:11;6.30;99.90
9977;DHT22;5029;47.378;11.776;2023-03-31T17:23:18;6.30;99.90
9977;DHT22;5029;47.378;11.776;2023-03-31T17:28:22;6.00;99.90
9977;DHT22;5029;47.378;11.776;2023-03-31T17:33:26;5.90;99.90
9977;DHT22;5029;47.378;11.776;2023-03-31T17:38:32;5.80;99.90
9977;DHT22;5029;47.378;11.776;2023-03-31T17:43:37;5.80;99.90
9977;DHT22;5029;47.378;11.776;2023-03-31T17:48:41;5.70;99.90
9977;DHT22;5029;47.378;11.776;2023-03-31T17:53:47;5.70;99.90
9977;DHT22;5029;47.378;11.776;2023-03-31T17:58:54;5.60;99.90
9977;DHT22;5029;47.378;11.776;2023-03-31T18:03:58;5.40;99.90
9977;DHT22;5029;47.378;11.776;2023-03-31T18:09:04;5.50;99.90
9977;DHT22;5029;47.378;11.776;2023-03-31T18:14:11;5.60;99.90
9977;DHT22;5029;47.378;11.776;2023-03-31T18:19:14;5.50;99.90
9977;DHT22;5029;47.378;11.776;2023-03-31T18:24:20;5.30;99.90
9977;DHT22;5029;47.378;11.776;2023-03-31T18:29:28;5.40;99.90
9977;DHT22;5029;47.378;11.776;2023-03-31T18:34:32;5.40;99.90
9977;DHT22;5029;47.378;11.776;2023-03-31T18:39:39;5.30;99.90
9977;DHT22;5029;47.378;11.776;2023-03-31T18:44:46;5.00;99.90
9977;DHT22;5029;47.378;11.776;2023-03-31T18:49:51;5.20;99.90
9977;DHT22;5029;47.378;11.776;2023-03-31T18:54:59;5.00;99.90
9977;DHT22;5029;47.378;11.776;2023-03-31T19:00:04;5.10;99.90
9977;DHT22;5029;47.378;11.776;2023-03-31T19:05:11;4.90;99.90
9977;DHT22;5029;47.378;11.776;2023-03-31T19:10:18;5.10;99.90
9977;DHT22;5029;47.378;11.776;2023-03-31T19:15:22;5.10;99.90
9977;DHT22;5029;47.378;11.776;2023-03-31T19:20:27;4.90;99.90
9977;DHT22;5029;47.378;11.776;2023-03-31T19:25:33;4.90;99.90
9977;DHT22;5029;47.378;11.776;2023-03-31T19:30:37;4.80;99.90
9977;DHT22;5029;47.378;11.776;2023-03-31T19:35:43;5.00;99.90
9977;DHT22;5029;47.378;11.776;2023-03-31T19:40:49;5.00;99.90
9977;DHT22;5029;47.378;11.776;2023-03-31T19:45:53;5.00;99.90
9977;DHT22;5029;47.378;11.776;2023-03-31T19:51:03;4.90;99.90
9977;DHT22;5029;47.378;11.776;2023-03-31T19:56:12;4.60;99.90
9977;DHT22;5029;47.378;11.776;2023-03-31T20:01:19;4.70;99.90
9977;DHT22;5029;47.378;11.776;2023-03-31T20:06:26;4.60;99.90
9977;DHT22;5029;47.378;11.776;2023-03-31T20:11:33;4.70;99.90
9977;DHT22;5029;47.378;11.776;2023-03-31T20:16:37;4.70;99.90
9977;DHT22;5029;47.378;11.776;2023-03-31T20:21:42;4.60;99.90
9977;DHT22;5029;47.378;11.776;2023-03-31T20:26:48;4.70;99.90
9977;DHT22;5029;47.378;11.776;2023-03-31T20:31:53;4.80;99.90
9977;DHT22;5029;47.378;11.776;2023-03-31T20:36:57;4.50;99.90
9977;DHT22;5029;47.378;11.776;2023-03-31T20:42:03;4.50;99.90
9977;DHT22;5029;47.378;11.776;2023-03-31T20:47:08;4.30;99.90
9977;DHT22;5029;47.378;11.776;2023-03-31T20:52:12;4.50;99.90
9977;DHT22;5029;47.378;11.776;2023-03-31T20:57:17;4.50;99.90
9977;DHT22;5029;47.378;11.776;2023-03-31T21:02:21;4.60;99.90
9977;DHT22;5029;47.378;11.776;2023-03-31T21:07:24;4.60;99.90
9977;DHT22;5029;47.378;11.776;2023-03-31T21:12:29;4.50;99.90
9977;DHT22;5029;47.378;11.776;2023-03-31T21:17:32;4.50;99.90
9977;DHT22;5029;47.378;11.776;2023-03-31T21:22:36;4.40;99.90
9977;DHT22;5029;47.378;11.776;2023-03-31T21:27:40;4.30;99.90
9977;DHT22;5029;47.378;11.776;2023-03-31T21:32:44;4.10;99.90
9977;DHT22;5029;47.378;11.776;2023-03-31T21:37:47;4.20;99.90
9977;DHT22;5029;47.378;11.776;2023-03-31T21:42:52;4.30;99.90
9977;DHT22;5029;47.378;11.776;2023-03-31T21:47:55;4.40;99.90
9977;DHT22;5029;47.378;11.776;2023-03-31T21:52:59;4.50;99.90
9977;DHT22;5029;47.378;11.776;2023-03-31T21:58:05;4.30;99.90
9977;DHT22;5029;47.378;11.776;2023-03-31T22:03:08;4.40;99.90
9977;DHT22;5029;47.378;11.776;2023-03-31T22:08:17;4.30;99.90
9977;DHT22;5029;47.378;11.776;2023-03-31T22:13:23;4.40;99.90
9977;DHT22;5029;47.378;11.776;2023-03-31T22:18:26;4.40;99.90
9977;DHT22;5029;47.378;11.776;2023-03-31T22:23:30;4.30;99.90
9977;DHT22;5029;47.378;11.776;2023-03-31T22:28:35;4.40;99.90
9977;DHT22;5029;47.378;11.776;2023-03-31T22:33:39;4.40;99.90
9977;DHT22;5029;47.378;11.776;2023-03-31T22:38:42;4.20;99.90
9977;DHT22;5029;47.378;11.776;2023-03-31T22:43:47;4.30;99.90
9977;DHT22;5029;47.378;11.776;2023-03-31T22:48:50;4.10;99.90
9977;DHT22;5029;47.378;11.776;2023-03-31T22:53:53;4.00;99.90
9977;DHT22;5029;47.378;11.776;2023-03-31T22:58:58;4.10;99.90
9977;DHT22;5029;47.378;11.776;2023-03-31T23:04:02;4.20;99.90
9977;DHT22;5029;47.378;11.776;2023-03-31T23:09:06;4.40;99.90
9977;DHT22;5029;47.378;11.776;2023-03-31T23:14:11;4.40;99.90
9977;DHT22;5029;47.378;11.776;2023-03-31T23:19:14;4.50;99.90
9977;DHT22;5029;47.378;11.776;2023-03-31T23:24:19;4.60;99.90
9977;DHT22;5029;47.378;11.776;2023-03-31T23:29:25;4.50;99.90
9977;DHT22;5029;47.378;11.776;2023-03-31T23:34:28;4.30;99.90
9977;DHT22;5029;47.378;11.776;2023-03-31T23:39:32;4.30;99.90
9977;DHT22;5029;47.378;11.776;2023-03-31T23:44:37;4.30;99.90
9977;DHT22;5029;47.378;11.776;2023-03-31T23:49:40;4.20;99.90
9977;DHT22;5029;47.378;11.776;2023-03-31T23:54:43;4.20;99.90
9977;DHT22;5029;47.378;11.776;2023-03-31T23:59:48;4.20;99.90
